sensor_id;sensor_type;location;lat;lon;timestamp;temperature;humidity
27619;DHT22;15039;50.830;4.730;2022-12-20T00:02:23;12.80;99.90
27619;DHT22;15039;50.830;4.730;2022-12-20T00:04:49;12.80;99.90
27619;DHT22;15039;50.830;4.730;2022-12-20T00:07:15;12.80;99.90
27619;DHT22;15039;50.830;4.730;2022-12-20T00:09:40;12.90;99.90
27619;DHT22;15039;50.830;4.730;2022-12-20T00:12:06;12.90;99.90
27619;DHT22;15039;50.830;4.730;2022-12-20T00:14:32;12.80;99.90
27619;DHT22;15039;50.830;4.730;2022-12-20T00:16:57;12.80;99.90
27619;DHT22;15039;50.830;4.730;2022-12-20T00:19:23;12.80;99.90
27619;DHT22;15039;50.830;4.730;2022-12-20T00:21:49;12.70;99.90
27619;DHT22;15039;50.830;4.730;2022-12-20T00:24:14;12.70;99.90
27619;DHT22;15039;50.830;4.730;2022-12-20T00:26:40;12.60;99.90
27619;DHT22;15039;50.830;4.730;2022-12-20T00:29:06;12.60;99.90
27619;DHT22;15039;50.830;4.730;2022-12-20T00:31:32;12.60;99.90
27619;DHT22;15039;50.830;4.730;2022-12-20T00:33:58;12.60;99.90
27619;DHT22;15039;50.830;4.730;2022-12-20T00:36:26;12.60;99.90
27619;DHT22;15039;50.830;4.730;2022-12-20T00:38:53;12.60;99.90
27619;DHT22;15039;50.830;4.730;2022-12-20T00:41:24;12.60;99.90
27619;DHT22;15039;50.830;4.730;2022-12-20T00:43:50;12.60;99.90
27619;DHT22;15039;50.830;4.730;2022-12-20T00:46:17;12.50;99.90
27619;DHT22;15039;50.830;4.730;2022-12-20T00:48:43;12.40;99.90
27619;DHT22;15039;50.830;4.730;2022-12-20T00:51:13;12.40;99.90
27619;DHT22;15039;50.830;4.730;2022-12-20T00:53:39;12.40;99.90
27619;DHT22;15039;50.830;4.730;2022-12-20T00:56:05;12.30;99.90
27619;DHT22;15039;50.830;4.730;2022-12-20T00:58:32;12.30;99.90
27619;DHT22;15039;50.830;4.730;2022-12-20T01:00:58;12.30;99.90
27619;DHT22;15039;50.830;4.730;2022-12-20T01:03:24;12.30;99.90
27619;DHT22;15039;50.830;4.730;2022-12-20T01:06:00;12.20;99.90
27619;DHT22;15039;50.830;4.730;2022-12-20T01:08:30;12.20;99.90
27619;DHT22;15039;50.830;4.730;2022-12-20T01:10:59;12.10;99.90
27619;DHT22;15039;50.830;4.730;2022-12-20T01:13:25;12.10;99.90
27619;DHT22;15039;50.830;4.730;2022-12-20T01:15:51;12.10;99.90
27619;DHT22;15039;50.830;4.730;2022-12-20T01:18:17;12.00;99.90
27619;DHT22;15039;50.830;4.730;2022-12-20T01:20:42;12.00;99.90
27619;DHT22;15039;50.830;4.730;2022-12-20T01:23:08;12.00;99.90
27619;DHT22;15039;50.830;4.730;2022-12-20T01:25:34;12.10;99.90
27619;DHT22;15039;50.830;4.730;2022-12-20T01:27:59;12.00;99.90
27619;DHT22;15039;50.830;4.730;2022-12-20T01:30:25;12.00;99.90
27619;DHT22;15039;50.830;4.730;2022-12-20T01:32:50;11.90;99.90
27619;DHT22;15039;50.830;4.730;2022-12-20T01:35:16;11.90;99.90
27619;DHT22;15039;50.830;4.730;2022-12-20T01:37:42;11.90;99.90
27619;DHT22;15039;50.830;4.730;2022-12-20T01:40:08;12.00;99.90
27619;DHT22;15039;50.830;4.730;2022-12-20T01:42:35;11.90;99.90
27619;DHT22;15039;50.830;4.730;2022-12-20T01:45:01;11.90;99.90
27619;DHT22;15039;50.830;4.730;2022-12-20T01:47:31;11.90;99.90
27619;DHT22;15039;50.830;4.730;2022-12-20T01:49:58;11.90;99.90
27619;DHT22;15039;50.830;4.730;2022-12-20T01:52:46;11.90;99.90
27619;DHT22;15039;50.830;4.730;2022-12-20T01:55:16;11.80;99.90
27619;DHT22;15039;50.830;4.730;2022-12-20T01:57:57;11.90;99.90
27619;DHT22;15039;50.830;4.730;2022-12-20T02:00:25;11.90;99.90
27619;DHT22;15039;50.830;4.730;2022-12-20T02:02:51;11.90;99.90
27619;DHT22;15039;50.830;4.730;2022-12-20T02:05:20;12.00;99.90
27619;DHT22;15039;50.830;4.730;2022-12-20T02:07:48;11.90;99.90
27619;DHT22;15039;50.830;4.730;2022-12-20T02:10:15;12.00;99.90
27619;DHT22;15039;50.830;4.730;2022-12-20T02:12:44;11.90;99.90
27619;DHT22;15039;50.830;4.730;2022-12-20T02:18:11;12.00;99.90
27619;DHT22;15039;50.830;4.730;2022-12-20T02:31:40;11.90;99.90
27619;DHT22;15039;50.830;4.730;2022-12-20T02:34:08;11.90;99.90
27619;DHT22;15039;50.830;4.730;2022-12-20T02:36:35;12.00;99.90
27619;DHT22;15039;50.830;4.730;2022-12-20T02:39:04;12.00;99.90
27619;DHT22;15039;50.830;4.730;2022-12-20T02:41:34;12.10;99.90
27619;DHT22;15039;50.830;4.730;2022-12-20T02:44:13;12.00;99.90
27619;DHT22;15039;50.830;4.730;2022-12-20T02:46:59;11.90;99.90
27619;DHT22;15039;50.830;4.730;2022-12-20T02:49:28;11.80;99.90
27619;DHT22;15039;50.830;4.730;2022-12-20T02:51:56;11.80;99.90
27619;DHT22;15039;50.830;4.730;2022-12-20T02:54:23;11.70;99.90
27619;DHT22;15039;50.830;4.730;2022-12-20T02:59:49;11.70;99.90
27619;DHT22;15039;50.830;4.730;2022-12-20T03:02:16;11.60;99.90
27619;DHT22;15039;50.830;4.730;2022-12-20T03:04:43;11.70;99.90
27619;DHT22;15039;50.830;4.730;2022-12-20T03:07:12;11.70;99.90
27619;DHT22;15039;50.830;4.730;2022-12-20T03:09:41;11.70;99.90
27619;DHT22;15039;50.830;4.730;2022-12-20T03:12:08;11.70;99.90
27619;DHT22;15039;50.830;4.730;2022-12-20T03:14:33;11.80;99.90
27619;DHT22;15039;50.830;4.730;2022-12-20T03:16:59;11.80;99.90
27619;DHT22;15039;50.830;4.730;2022-12-20T03:19:25;11.80;99.90
27619;DHT22;15039;50.830;4.730;2022-12-20T03:21:51;11.90;99.90
27619;DHT22;15039;50.830;4.730;2022-12-20T03:24:17;11.90;99.90
27619;DHT22;15039;50.830;4.730;2022-12-20T03:26:42;11.90;99.90
27619;DHT22;15039;50.830;4.730;2022-12-20T03:29:09;11.90;99.90
27619;DHT22;15039;50.830;4.730;2022-12-20T03:31:35;11.90;99.90
27619;DHT22;15039;50.830;4.730;2022-12-20T03:34:01;12.00;99.90
27619;DHT22;15039;50.830;4.730;2022-12-20T03:36:27;12.10;99.90
27619;DHT22;15039;50.830;4.730;2022-12-20T03:38:53;12.10;99.90
27619;DHT22;15039;50.830;4.730;2022-12-20T03:41:19;12.10;99.90
27619;DHT22;15039;50.830;4.730;2022-12-20T03:43:47;12.20;99.90
27619;DHT22;15039;50.830;4.730;2022-12-20T03:46:12;12.10;99.90
27619;DHT22;15039;50.830;4.730;2022-12-20T03:48:38;12.20;99.90
27619;DHT22;15039;50.830;4.730;2022-12-20T03:51:04;12.20;99.90
27619;DHT22;15039;50.830;4.730;2022-12-20T03:53:30;12.10;99.90
27619;DHT22;15039;50.830;4.730;2022-12-20T03:55:55;12.10;99.90
27619;DHT22;15039;50.830;4.730;2022-12-20T03:58:21;12.00;99.90
27619;DHT22;15039;50.830;4.730;2022-12-20T04:00:46;12.00;99.90
27619;DHT22;15039;50.830;4.730;2022-12-20T04:03:12;12.00;99.90
27619;DHT22;15039;50.830;4.730;2022-12-20T04:05:38;11.90;99.90
27619;DHT22;15039;50.830;4.730;2022-12-20T04:08:04;11.90;99.90
27619;DHT22;15039;50.830;4.730;2022-12-20T04:10:29;11.90;99.90
27619;DHT22;15039;50.830;4.730;2022-12-20T04:12:55;11.90;99.90
27619;DHT22;15039;50.830;4.730;2022-12-20T04:15:21;11.90;99.90
27619;DHT22;15039;50.830;4.730;2022-12-20T04:17:46;12.00;99.90
27619;DHT22;15039;50.830;4.730;2022-12-20T04:20:14;12.00;99.90
27619;DHT22;15039;50.830;4.730;2022-12-20T04:22:50;12.00;99.90
27619;DHT22;15039;50.830;4.730;2022-12-20T04:25:18;12.10;99.90
27619;DHT22;15039;50.830;4.730;2022-12-20T04:27:44;12.20;99.90
27619;DHT22;15039;50.830;4.730;2022-12-20T04:30:10;12.10;99.90
27619;DHT22;15039;50.830;4.730;2022-12-20T04:32:36;12.10;99.90
27619;DHT22;15039;50.830;4.730;2022-12-20T04:35:02;12.10;99.90
27619;DHT22;15039;50.830;4.730;2022-12-20T04:37:29;12.10;99.90
27619;DHT22;15039;50.830;4.730;2022-12-20T04:39:55;12.10;99.90
27619;DHT22;15039;50.830;4.730;2022-12-20T04:42:21;12.20;99.90
27619;DHT22;15039;50.830;4.730;2022-12-20T04:44:47;12.20;99.90
27619;DHT22;15039;50.830;4.730;2022-12-20T04:47:13;12.30;99.90
27619;DHT22;15039;50.830;4.730;2022-12-20T04:49:38;12.30;99.90
27619;DHT22;15039;50.830;4.730;2022-12-20T04:52:04;12.30;99.90
27619;DHT22;15039;50.830;4.730;2022-12-20T04:55:05;12.30;99.90
27619;DHT22;15039;50.830;4.730;2022-12-20T04:57:31;12.30;99.90
27619;DHT22;15039;50.830;4.730;2022-12-20T04:59:57;12.20;99.90
27619;DHT22;15039;50.830;4.730;2022-12-20T05:02:22;12.20;99.90
27619;DHT22;15039;50.830;4.730;2022-12-20T05:04:48;12.20;99.90
27619;DHT22;15039;50.830;4.730;2022-12-20T05:07:13;12.20;99.90
27619;DHT22;15039;50.830;4.730;2022-12-20T05:09:39;12.20;99.90
27619;DHT22;15039;50.830;4.730;2022-12-20T05:12:05;12.20;99.90
27619;DHT22;15039;50.830;4.730;2022-12-20T05:14:30;12.20;99.90
27619;DHT22;15039;50.830;4.730;2022-12-20T05:16:56;12.20;99.90
27619;DHT22;15039;50.830;4.730;2022-12-20T05:19:21;12.20;99.90
27619;DHT22;15039;50.830;4.730;2022-12-20T05:21:47;12.20;99.90
27619;DHT22;15039;50.830;4.730;2022-12-20T05:24:31;12.20;99.90
27619;DHT22;15039;50.830;4.730;2022-12-20T05:27:15;12.20;99.90
27619;DHT22;15039;50.830;4.730;2022-12-20T05:29:41;12.20;99.90
27619;DHT22;15039;50.830;4.730;2022-12-20T05:32:06;12.20;99.90
27619;DHT22;15039;50.830;4.730;2022-12-20T05:34:32;12.10;99.90
27619;DHT22;15039;50.830;4.730;2022-12-20T05:36:57;12.10;99.90
27619;DHT22;15039;50.830;4.730;2022-12-20T05:39:23;12.10;99.90
27619;DHT22;15039;50.830;4.730;2022-12-20T05:41:48;12.10;99.90
27619;DHT22;15039;50.830;4.730;2022-12-20T05:44:14;12.10;99.90
27619;DHT22;15039;50.830;4.730;2022-12-20T05:46:41;12.10;99.90
27619;DHT22;15039;50.830;4.730;2022-12-20T05:49:07;12.10;99.90
27619;DHT22;15039;50.830;4.730;2022-12-20T05:51:32;12.10;99.90
27619;DHT22;15039;50.830;4.730;2022-12-20T05:53:58;12.10;99.90
27619;DHT22;15039;50.830;4.730;2022-12-20T05:56:24;12.10;99.90
27619;DHT22;15039;50.830;4.730;2022-12-20T05:58:49;12.10;99.90
27619;DHT22;15039;50.830;4.730;2022-12-20T06:01:15;12.10;99.90
27619;DHT22;15039;50.830;4.730;2022-12-20T06:03:41;12.10;99.90
27619;DHT22;15039;50.830;4.730;2022-12-20T06:06:06;12.10;99.90
27619;DHT22;15039;50.830;4.730;2022-12-20T06:08:32;12.10;99.90
27619;DHT22;15039;50.830;4.730;2022-12-20T06:10:58;12.10;99.90
27619;DHT22;15039;50.830;4.730;2022-12-20T06:13:23;12.10;99.90
27619;DHT22;15039;50.830;4.730;2022-12-20T06:15:49;12.10;99.90
27619;DHT22;15039;50.830;4.730;2022-12-20T06:18:15;12.00;99.90
27619;DHT22;15039;50.830;4.730;2022-12-20T06:20:40;12.00;99.90
27619;DHT22;15039;50.830;4.730;2022-12-20T06:23:06;12.00;99.90
27619;DHT22;15039;50.830;4.730;2022-12-20T06:25:33;12.00;99.90
27619;DHT22;15039;50.830;4.730;2022-12-20T06:27:59;12.00;99.90
27619;DHT22;15039;50.830;4.730;2022-12-20T06:30:25;12.00;99.90
27619;DHT22;15039;50.830;4.730;2022-12-20T06:32:51;12.10;99.90
27619;DHT22;15039;50.830;4.730;2022-12-20T06:35:17;12.10;99.90
27619;DHT22;15039;50.830;4.730;2022-12-20T06:37:42;12.10;99.90
27619;DHT22;15039;50.830;4.730;2022-12-20T06:40:09;12.10;99.90
27619;DHT22;15039;50.830;4.730;2022-12-20T06:42:35;12.10;99.90
27619;DHT22;15039;50.830;4.730;2022-12-20T06:45:01;12.20;99.90
27619;DHT22;15039;50.830;4.730;2022-12-20T06:47:27;12.20;99.90
27619;DHT22;15039;50.830;4.730;2022-12-20T06:49:52;12.30;99.90
27619;DHT22;15039;50.830;4.730;2022-12-20T06:52:18;12.30;99.90
27619;DHT22;15039;50.830;4.730;2022-12-20T06:54:43;12.30;99.90
27619;DHT22;15039;50.830;4.730;2022-12-20T06:57:09;12.30;99.90
27619;DHT22;15039;50.830;4.730;2022-12-20T06:59:35;12.30;99.90
27619;DHT22;15039;50.830;4.730;2022-12-20T07:02:00;12.30;99.90
27619;DHT22;15039;50.830;4.730;2022-12-20T07:04:26;12.30;99.90
27619;DHT22;15039;50.830;4.730;2022-12-20T07:06:52;12.30;99.90
27619;DHT22;15039;50.830;4.730;2022-12-20T07:09:17;12.40;99.90
27619;DHT22;15039;50.830;4.730;2022-12-20T07:11:43;12.40;99.90
27619;DHT22;15039;50.830;4.730;2022-12-20T07:14:09;12.50;99.90
27619;DHT22;15039;50.830;4.730;2022-12-20T07:16:35;12.40;99.90
27619;DHT22;15039;50.830;4.730;2022-12-20T07:19:01;12.40;99.90
27619;DHT22;15039;50.830;4.730;2022-12-20T07:21:27;12.30;99.90
27619;DHT22;15039;50.830;4.730;2022-12-20T07:23:54;12.30;99.90
27619;DHT22;15039;50.830;4.730;2022-12-20T07:26:20;12.30;99.90
27619;DHT22;15039;50.830;4.730;2022-12-20T07:28:46;12.30;99.90
27619;DHT22;15039;50.830;4.730;2022-12-20T07:31:12;12.20;99.90
27619;DHT22;15039;50.830;4.730;2022-12-20T07:33:38;12.20;99.90
27619;DHT22;15039;50.830;4.730;2022-12-20T07:36:09;12.20;99.90
27619;DHT22;15039;50.830;4.730;2022-12-20T07:38:36;12.20;99.90
27619;DHT22;15039;50.830;4.730;2022-12-20T07:41:12;12.10;99.90
27619;DHT22;15039;50.830;4.730;2022-12-20T07:43:38;12.10;99.90
27619;DHT22;15039;50.830;4.730;2022-12-20T07:46:06;12.10;99.90
27619;DHT22;15039;50.830;4.730;2022-12-20T07:48:32;12.00;99.90
27619;DHT22;15039;50.830;4.730;2022-12-20T07:51:05;11.90;99.90
27619;DHT22;15039;50.830;4.730;2022-12-20T07:53:34;11.90;99.90
27619;DHT22;15039;50.830;4.730;2022-12-20T07:56:04;11.80;99.90
27619;DHT22;15039;50.830;4.730;2022-12-20T07:58:33;11.70;99.90
27619;DHT22;15039;50.830;4.730;2022-12-20T08:01:00;11.60;99.90
27619;DHT22;15039;50.830;4.730;2022-12-20T08:03:34;11.60;99.90
27619;DHT22;15039;50.830;4.730;2022-12-20T08:06:02;11.50;99.90
27619;DHT22;15039;50.830;4.730;2022-12-20T08:08:35;11.50;99.90
27619;DHT22;15039;50.830;4.730;2022-12-20T08:11:03;11.50;99.90
27619;DHT22;15039;50.830;4.730;2022-12-20T08:13:31;11.50;99.90
27619;DHT22;15039;50.830;4.730;2022-12-20T08:15:57;11.50;99.90
27619;DHT22;15039;50.830;4.730;2022-12-20T08:18:23;11.50;99.90
27619;DHT22;15039;50.830;4.730;2022-12-20T08:20:49;11.40;99.90
27619;DHT22;15039;50.830;4.730;2022-12-20T08:23:14;11.40;99.90
27619;DHT22;15039;50.830;4.730;2022-12-20T08:25:40;11.40;99.90
27619;DHT22;15039;50.830;4.730;2022-12-20T08:28:06;11.40;99.90
27619;DHT22;15039;50.830;4.730;2022-12-20T08:30:31;11.40;99.90
27619;DHT22;15039;50.830;4.730;2022-12-20T08:32:57;11.40;99.90
27619;DHT22;15039;50.830;4.730;2022-12-20T08:35:23;11.30;99.90
27619;DHT22;15039;50.830;4.730;2022-12-20T08:37:51;11.40;99.90
27619;DHT22;15039;50.830;4.730;2022-12-20T08:40:18;11.40;99.90
27619;DHT22;15039;50.830;4.730;2022-12-20T08:42:44;11.50;99.90
27619;DHT22;15039;50.830;4.730;2022-12-20T08:45:10;11.50;99.90
27619;DHT22;15039;50.830;4.730;2022-12-20T08:47:35;11.40;99.90
27619;DHT22;15039;50.830;4.730;2022-12-20T08:50:01;11.50;99.90
27619;DHT22;15039;50.830;4.730;2022-12-20T08:52:28;11.50;99.90
27619;DHT22;15039;50.830;4.730;2022-12-20T08:54:54;11.50;99.90
27619;DHT22;15039;50.830;4.730;2022-12-20T08:57:19;11.60;99.90
27619;DHT22;15039;50.830;4.730;2022-12-20T08:59:45;11.60;99.90
27619;DHT22;15039;50.830;4.730;2022-12-20T09:02:10;11.70;99.90
27619;DHT22;15039;50.830;4.730;2022-12-20T09:04:36;11.70;99.90
27619;DHT22;15039;50.830;4.730;2022-12-20T09:07:02;11.70;99.90
27619;DHT22;15039;50.830;4.730;2022-12-20T09:09:27;11.80;99.90
27619;DHT22;15039;50.830;4.730;2022-12-20T09:11:53;11.80;99.90
27619;DHT22;15039;50.830;4.730;2022-12-20T09:14:19;11.80;99.90
27619;DHT22;15039;50.830;4.730;2022-12-20T09:16:44;11.90;99.90
27619;DHT22;15039;50.830;4.730;2022-12-20T09:19:12;12.00;99.90
27619;DHT22;15039;50.830;4.730;2022-12-20T09:21:38;12.00;99.90
27619;DHT22;15039;50.830;4.730;2022-12-20T09:24:04;12.00;99.90
27619;DHT22;15039;50.830;4.730;2022-12-20T09:26:31;11.90;99.90
27619;DHT22;15039;50.830;4.730;2022-12-20T09:28:57;11.80;99.90
27619;DHT22;15039;50.830;4.730;2022-12-20T09:31:24;11.70;99.90
27619;DHT22;15039;50.830;4.730;2022-12-20T09:33:55;11.70;99.90
27619;DHT22;15039;50.830;4.730;2022-12-20T09:36:22;11.60;99.90
27619;DHT22;15039;50.830;4.730;2022-12-20T09:38:48;11.60;99.90
27619;DHT22;15039;50.830;4.730;2022-12-20T09:41:40;11.60;99.90
27619;DHT22;15039;50.830;4.730;2022-12-20T09:44:25;11.60;99.90
27619;DHT22;15039;50.830;4.730;2022-12-20T09:47:16;11.70;99.90
27619;DHT22;15039;50.830;4.730;2022-12-20T09:49:44;11.80;99.90
27619;DHT22;15039;50.830;4.730;2022-12-20T09:52:28;11.80;99.90
27619;DHT22;15039;50.830;4.730;2022-12-20T09:55:30;11.90;99.90
27619;DHT22;15039;50.830;4.730;2022-12-20T10:00:43;11.90;99.90
27619;DHT22;15039;50.830;4.730;2022-12-20T10:03:22;11.90;99.90
27619;DHT22;15039;50.830;4.730;2022-12-20T10:05:56;11.90;99.90
27619;DHT22;15039;50.830;4.730;2022-12-20T10:08:42;11.90;99.90
27619;DHT22;15039;50.830;4.730;2022-12-20T10:11:21;11.80;99.90
27619;DHT22;15039;50.830;4.730;2022-12-20T10:14:39;11.90;99.90
27619;DHT22;15039;50.830;4.730;2022-12-20T10:22:22;11.90;99.90
27619;DHT22;15039;50.830;4.730;2022-12-20T10:27:42;11.90;99.90
27619;DHT22;15039;50.830;4.730;2022-12-20T10:30:17;11.80;99.90
27619;DHT22;15039;50.830;4.730;2022-12-20T10:32:49;11.70;99.90
27619;DHT22;15039;50.830;4.730;2022-12-20T10:35:22;11.70;99.90
27619;DHT22;15039;50.830;4.730;2022-12-20T10:38:18;11.60;99.90
27619;DHT22;15039;50.830;4.730;2022-12-20T10:43:18;11.70;99.90
27619;DHT22;15039;50.830;4.730;2022-12-20T10:45:57;11.70;99.90
27619;DHT22;15039;50.830;4.730;2022-12-20T10:48:28;11.70;99.90
27619;DHT22;15039;50.830;4.730;2022-12-20T10:53:30;11.70;99.90
27619;DHT22;15039;50.830;4.730;2022-12-20T10:56:16;11.80;99.90
27619;DHT22;15039;50.830;4.730;2022-12-20T10:58:56;11.80;99.90
27619;DHT22;15039;50.830;4.730;2022-12-20T11:01:26;11.90;99.90
27619;DHT22;15039;50.830;4.730;2022-12-20T11:03:56;11.90;99.90
27619;DHT22;15039;50.830;4.730;2022-12-20T11:06:40;11.90;99.90
27619;DHT22;15039;50.830;4.730;2022-12-20T11:09:33;11.80;99.90
27619;DHT22;15039;50.830;4.730;2022-12-20T11:12:11;11.70;99.90
27619;DHT22;15039;50.830;4.730;2022-12-20T11:14:37;11.70;99.90
27619;DHT22;15039;50.830;4.730;2022-12-20T11:17:50;11.70;99.90
27619;DHT22;15039;50.830;4.730;2022-12-20T11:20:07;11.70;99.90
27619;DHT22;15039;50.830;4.730;2022-12-20T11:30:42;11.60;99.90
27619;DHT22;15039;50.830;4.730;2022-12-20T11:33:25;11.50;99.90
27619;DHT22;15039;50.830;4.730;2022-12-20T11:38:52;11.60;99.90
27619;DHT22;15039;50.830;4.730;2022-12-20T11:41:41;11.60;99.90
27619;DHT22;15039;50.830;4.730;2022-12-20T11:52:46;11.50;99.90
27619;DHT22;15039;50.830;4.730;2022-12-20T11:55:15;11.50;99.90
27619;DHT22;15039;50.830;4.730;2022-12-20T11:58:04;11.40;99.90
27619;DHT22;15039;50.830;4.730;2022-12-20T12:00:35;11.40;99.90
27619;DHT22;15039;50.830;4.730;2022-12-20T12:03:13;11.40;99.90
27619;DHT22;15039;50.830;4.730;2022-12-20T12:05:49;11.40;99.90
27619;DHT22;15039;50.830;4.730;2022-12-20T12:09:07;11.50;99.90
27619;DHT22;15039;50.830;4.730;2022-12-20T12:11:17;11.50;99.90
27619;DHT22;15039;50.830;4.730;2022-12-20T12:13:43;11.50;99.90
27619;DHT22;15039;50.830;4.730;2022-12-20T12:16:34;11.50;99.90
27619;DHT22;15039;50.830;4.730;2022-12-20T12:19:02;11.40;99.90
27619;DHT22;15039;50.830;4.730;2022-12-20T12:21:36;11.30;99.90
27619;DHT22;15039;50.830;4.730;2022-12-20T12:26:40;11.40;99.90
27619;DHT22;15039;50.830;4.730;2022-12-20T12:29:12;11.30;99.90
27619;DHT22;15039;50.830;4.730;2022-12-20T12:45:23;11.20;99.90
27619;DHT22;15039;50.830;4.730;2022-12-20T12:48:07;11.20;99.90
27619;DHT22;15039;50.830;4.730;2022-12-20T12:50:43;11.10;99.90
27619;DHT22;15039;50.830;4.730;2022-12-20T12:53:31;11.20;99.90
27619;DHT22;15039;50.830;4.730;2022-12-20T12:55:58;11.20;99.90
27619;DHT22;15039;50.830;4.730;2022-12-20T12:58:44;11.10;99.90
27619;DHT22;15039;50.830;4.730;2022-12-20T13:01:46;11.10;99.90
27619;DHT22;15039;50.830;4.730;2022-12-20T13:11:56;10.90;99.90
27619;DHT22;15039;50.830;4.730;2022-12-20T13:19:33;11.00;99.90
27619;DHT22;15039;50.830;4.730;2022-12-20T13:27:26;10.90;99.90
27619;DHT22;15039;50.830;4.730;2022-12-20T13:29:59;11.00;99.90
27619;DHT22;15039;50.830;4.730;2022-12-20T13:35:45;11.00;99.90
27619;DHT22;15039;50.830;4.730;2022-12-20T13:40:49;10.90;99.90
27619;DHT22;15039;50.830;4.730;2022-12-20T13:46:00;10.90;99.90
27619;DHT22;15039;50.830;4.730;2022-12-20T13:51:03;10.90;99.90
27619;DHT22;15039;50.830;4.730;2022-12-20T13:53:30;11.00;99.90
27619;DHT22;15039;50.830;4.730;2022-12-20T13:55:56;11.00;99.90
27619;DHT22;15039;50.830;4.730;2022-12-20T13:58:28;11.10;99.90
27619;DHT22;15039;50.830;4.730;2022-12-20T14:01:05;11.10;99.90
27619;DHT22;15039;50.830;4.730;2022-12-20T14:03:32;11.10;99.90
27619;DHT22;15039;50.830;4.730;2022-12-20T14:06:08;11.10;99.90
27619;DHT22;15039;50.830;4.730;2022-12-20T14:08:44;11.10;99.90
27619;DHT22;15039;50.830;4.730;2022-12-20T14:11:31;11.10;99.90
27619;DHT22;15039;50.830;4.730;2022-12-20T14:13:59;11.10;99.90
27619;DHT22;15039;50.830;4.730;2022-12-20T14:16:27;11.00;99.90
27619;DHT22;15039;50.830;4.730;2022-12-20T14:19:04;11.00;99.90
27619;DHT22;15039;50.830;4.730;2022-12-20T14:21:32;11.00;99.90
27619;DHT22;15039;50.830;4.730;2022-12-20T14:24:00;11.00;99.90
27619;DHT22;15039;50.830;4.730;2022-12-20T14:26:29;11.00;99.90
27619;DHT22;15039;50.830;4.730;2022-12-20T14:28:56;11.00;99.90
27619;DHT22;15039;50.830;4.730;2022-12-20T14:36:30;11.10;99.90
27619;DHT22;15039;50.830;4.730;2022-12-20T14:38:56;11.10;99.90
27619;DHT22;15039;50.830;4.730;2022-12-20T14:41:37;11.10;99.90
27619;DHT22;15039;50.830;4.730;2022-12-20T14:44:24;11.10;99.90
27619;DHT22;15039;50.830;4.730;2022-12-20T14:47:02;11.10;99.90
27619;DHT22;15039;50.830;4.730;2022-12-20T14:49:33;11.20;99.90
27619;DHT22;15039;50.830;4.730;2022-12-20T14:52:15;11.20;99.90
27619;DHT22;15039;50.830;4.730;2022-12-20T14:57:30;11.20;99.90
27619;DHT22;15039;50.830;4.730;2022-12-20T15:08:26;11.20;99.90
27619;DHT22;15039;50.830;4.730;2022-12-20T15:13:36;11.30;99.90
27619;DHT22;15039;50.830;4.730;2022-12-20T15:16:15;11.20;99.90
27619;DHT22;15039;50.830;4.730;2022-12-20T15:18:40;11.20;99.90
27619;DHT22;15039;50.830;4.730;2022-12-20T15:23:49;11.10;99.90
27619;DHT22;15039;50.830;4.730;2022-12-20T15:26:17;11.10;99.90
27619;DHT22;15039;50.830;4.730;2022-12-20T15:28:43;11.10;99.90
27619;DHT22;15039;50.830;4.730;2022-12-20T15:31:10;11.20;99.90
27619;DHT22;15039;50.830;4.730;2022-12-20T15:33:38;11.20;99.90
27619;DHT22;15039;50.830;4.730;2022-12-20T15:36:04;11.20;99.90
27619;DHT22;15039;50.830;4.730;2022-12-20T15:38:30;11.20;99.90
27619;DHT22;15039;50.830;4.730;2022-12-20T15:41:03;11.10;99.90
27619;DHT22;15039;50.830;4.730;2022-12-20T15:43:35;11.10;99.90
27619;DHT22;15039;50.830;4.730;2022-12-20T15:46:02;11.20;99.90
27619;DHT22;15039;50.830;4.730;2022-12-20T15:48:28;11.10;99.90
27619;DHT22;15039;50.830;4.730;2022-12-20T15:50:55;11.10;99.90
27619;DHT22;15039;50.830;4.730;2022-12-20T15:53:27;11.10;99.90
27619;DHT22;15039;50.830;4.730;2022-12-20T15:55:54;11.00;99.90
27619;DHT22;15039;50.830;4.730;2022-12-20T15:58:22;11.10;99.90
27619;DHT22;15039;50.830;4.730;2022-12-20T16:00:48;11.10;99.90
27619;DHT22;15039;50.830;4.730;2022-12-20T16:03:19;11.10;99.90
27619;DHT22;15039;50.830;4.730;2022-12-20T16:05:46;11.00;99.90
27619;DHT22;15039;50.830;4.730;2022-12-20T16:08:12;11.00;99.90
27619;DHT22;15039;50.830;4.730;2022-12-20T16:10:38;10.90;99.90
27619;DHT22;15039;50.830;4.730;2022-12-20T16:13:04;11.00;99.90
27619;DHT22;15039;50.830;4.730;2022-12-20T16:15:32;10.90;99.90
27619;DHT22;15039;50.830;4.730;2022-12-20T16:17:58;10.90;99.90
27619;DHT22;15039;50.830;4.730;2022-12-20T16:20:24;11.00;99.90
27619;DHT22;15039;50.830;4.730;2022-12-20T16:22:52;11.00;99.90
27619;DHT22;15039;50.830;4.730;2022-12-20T16:25:34;11.00;99.90
27619;DHT22;15039;50.830;4.730;2022-12-20T16:28:00;11.10;99.90
27619;DHT22;15039;50.830;4.730;2022-12-20T16:30:26;11.10;99.90
27619;DHT22;15039;50.830;4.730;2022-12-20T16:32:53;11.10;99.90
27619;DHT22;15039;50.830;4.730;2022-12-20T16:35:32;11.10;99.90
27619;DHT22;15039;50.830;4.730;2022-12-20T16:37:59;11.10;99.90
27619;DHT22;15039;50.830;4.730;2022-12-20T16:40:27;11.10;99.90
27619;DHT22;15039;50.830;4.730;2022-12-20T16:42:56;11.00;99.90
27619;DHT22;15039;50.830;4.730;2022-12-20T16:45:25;11.00;99.90
27619;DHT22;15039;50.830;4.730;2022-12-20T16:47:51;11.10;99.90
27619;DHT22;15039;50.830;4.730;2022-12-20T16:50:21;11.10;99.90
27619;DHT22;15039;50.830;4.730;2022-12-20T16:52:47;11.10;99.90
27619;DHT22;15039;50.830;4.730;2022-12-20T16:55:25;11.20;99.90
27619;DHT22;15039;50.830;4.730;2022-12-20T16:57:51;11.20;99.90
27619;DHT22;15039;50.830;4.730;2022-12-20T17:00:22;11.10;99.90
27619;DHT22;15039;50.830;4.730;2022-12-20T17:02:49;11.20;99.90
27619;DHT22;15039;50.830;4.730;2022-12-20T17:05:30;11.20;99.90
27619;DHT22;15039;50.830;4.730;2022-12-20T17:07:56;11.20;99.90
27619;DHT22;15039;50.830;4.730;2022-12-20T17:10:23;11.20;99.90
27619;DHT22;15039;50.830;4.730;2022-12-20T17:12:49;11.30;99.90
27619;DHT22;15039;50.830;4.730;2022-12-20T17:15:19;11.20;99.90
27619;DHT22;15039;50.830;4.730;2022-12-20T17:17:45;11.30;99.90
27619;DHT22;15039;50.830;4.730;2022-12-20T17:20:12;11.30;99.90
27619;DHT22;15039;50.830;4.730;2022-12-20T17:22:38;11.30;99.90
27619;DHT22;15039;50.830;4.730;2022-12-20T17:25:03;11.30;99.90
27619;DHT22;15039;50.830;4.730;2022-12-20T17:27:29;11.20;99.90
27619;DHT22;15039;50.830;4.730;2022-12-20T17:29:55;11.20;99.90
27619;DHT22;15039;50.830;4.730;2022-12-20T17:32:22;11.20;99.90
27619;DHT22;15039;50.830;4.730;2022-12-20T17:34:48;11.20;99.90
27619;DHT22;15039;50.830;4.730;2022-12-20T17:37:14;11.10;99.90
27619;DHT22;15039;50.830;4.730;2022-12-20T17:39:40;11.10;99.90
27619;DHT22;15039;50.830;4.730;2022-12-20T17:42:07;11.20;99.90
27619;DHT22;15039;50.830;4.730;2022-12-20T17:44:33;11.10;99.90